createdAt,value
2019-05-03T00:02:37.395Z,99.90
2019-05-03T00:05:25.332Z,99.90
2019-05-03T00:07:54.877Z,99.90
2019-05-03T00:10:22.511Z,99.90
2019-05-03T00:12:50.215Z,99.90
2019-05-03T00:15:49.496Z,99.90
2019-05-03T00:18:17.293Z,99.90
2019-05-03T00:20:45.065Z,99.90
2019-05-03T00:23:12.831Z,99.90
2019-05-03T00:25:41.863Z,99.90
2019-05-03T00:28:09.686Z,99.90
2019-05-03T00:30:37.346Z,99.90
2019-05-03T00:33:05.196Z,99.90
2019-05-03T00:35:51.989Z,99.90
2019-05-03T00:38:21.693Z,99.90
2019-05-03T00:40:49.236Z,99.90
2019-05-03T00:43:16.874Z,99.90
2019-05-03T00:45:44.543Z,99.90
2019-05-03T00:48:12.453Z,99.90
2019-05-03T00:50:40.243Z,99.90
2019-05-03T00:53:07.893Z,99.90
2019-05-03T00:55:35.603Z,99.90
2019-05-03T00:58:03.330Z,99.90
2019-05-03T01:00:32.305Z,99.90
2019-05-03T01:03:02.122Z,99.90
2019-05-03T01:05:29.713Z,99.90
2019-05-03T01:07:57.346Z,99.90
2019-05-03T01:10:25.045Z,99.90
2019-05-03T01:12:52.733Z,99.90
2019-05-03T01:15:42.789Z,99.90
2019-05-03T01:18:12.626Z,99.90
2019-05-03T01:20:40.267Z,99.90
2019-05-03T01:23:07.969Z,99.90
2019-05-03T01:25:35.684Z,99.90
2019-05-03T01:28:03.589Z,99.90
2019-05-03T01:30:32.042Z,99.90
2019-05-03T01:32:59.916Z,99.90
2019-05-03T01:35:27.590Z,99.90
2019-05-03T01:37:55.268Z,99.90
2019-05-03T01:40:22.944Z,99.90
2019-05-03T01:42:51.803Z,99.90
2019-05-03T01:45:19.687Z,99.90
2019-05-03T01:47:59.707Z,99.90
2019-05-03T01:50:46.860Z,99.90
2019-05-03T01:53:15.893Z,99.90
2019-05-03T01:55:52.761Z,99.90
2019-05-03T01:58:22.274Z,99.90
2019-05-03T02:00:53.810Z,99.90
2019-05-03T02:03:41.870Z,99.90
2019-05-03T02:06:11.560Z,99.90
2019-05-03T02:08:39.106Z,99.90
2019-05-03T02:11:06.750Z,99.90
2019-05-03T02:13:34.405Z,99.90
2019-05-03T02:16:02.388Z,99.90
2019-05-03T02:18:31.802Z,99.90
2019-05-03T02:21:01.601Z,99.90
2019-05-03T02:23:29.196Z,99.90
2019-05-03T02:25:59.229Z,99.90
2019-05-03T02:28:26.390Z,99.90
2019-05-03T02:30:53.983Z,99.90
2019-05-03T02:33:23.317Z,99.90
2019-05-03T02:35:53.329Z,99.90
2019-05-03T02:38:23.107Z,99.90
2019-05-03T02:40:53.020Z,99.90
2019-05-03T02:43:27.883Z,99.90
2019-05-03T02:46:16.590Z,99.90
2019-05-03T02:48:55.982Z,99.90
2019-05-03T02:51:26.117Z,99.90
2019-05-03T02:53:56.775Z,99.90
2019-05-03T02:56:25.848Z,99.90
2019-05-03T02:58:52.276Z,99.90
2019-05-03T03:01:20.360Z,99.90
2019-05-03T03:03:48.236Z,99.90
2019-05-03T03:06:18.581Z,99.90
2019-05-03T03:08:48.863Z,99.90
2019-05-03T03:11:17.503Z,99.90
2019-05-03T03:13:45.941Z,99.90
2019-05-03T03:16:16.302Z,99.90
2019-05-03T03:18:45.586Z,99.90
2019-05-03T03:21:16.340Z,99.90
2019-05-03T03:24:02.063Z,99.90
2019-05-03T03:26:37.452Z,99.90
2019-05-03T03:29:05.703Z,99.90
2019-05-03T03:31:59.256Z,99.90
2019-05-03T03:34:31.696Z,99.90
2019-05-03T03:37:05.209Z,99.90
2019-05-03T03:39:29.798Z,99.90
2019-05-03T03:41:58.101Z,99.90
2019-05-03T03:44:26.546Z,99.90
2019-05-03T03:46:56.232Z,99.90
2019-05-03T03:49:26.885Z,99.90
2019-05-03T03:51:56.396Z,99.90
2019-05-03T03:54:26.086Z,99.90
2019-05-03T03:57:03.336Z,99.90
2019-05-03T03:59:26.542Z,99.90
2019-05-03T04:01:55.104Z,99.90
2019-05-03T04:04:25.742Z,99.90
2019-05-03T04:06:56.079Z,99.90
2019-05-03T04:09:22.269Z,99.90
2019-05-03T04:11:50.860Z,99.90
2019-05-03T04:14:25.426Z,99.90
2019-05-03T04:17:01.010Z,99.90
2019-05-03T04:19:31.470Z,99.90
2019-05-03T04:21:59.292Z,99.90
2019-05-03T04:24:28.267Z,99.90
2019-05-03T04:27:15.547Z,99.90
2019-05-03T04:29:35.989Z,99.90
2019-05-03T04:32:05.994Z,99.90
2019-05-03T04:34:35.825Z,99.90
2019-05-03T04:37:05.337Z,99.90
2019-05-03T04:39:35.627Z,99.90
2019-05-03T04:42:02.653Z,99.90
2019-05-03T04:44:30.319Z,99.90
2019-05-03T04:46:58.420Z,99.90
2019-05-03T04:49:26.459Z,99.90
2019-05-03T04:51:56.034Z,99.90
2019-05-03T04:54:46.798Z,99.90
2019-05-03T04:57:15.998Z,99.90
2019-05-03T04:59:45.194Z,99.90
2019-05-03T05:02:15.680Z,99.90
2019-05-03T05:04:42.681Z,99.90
2019-05-03T05:07:10.380Z,99.90
2019-05-03T05:09:38.077Z,99.90
2019-05-03T05:12:07.558Z,99.90
2019-05-03T05:14:35.435Z,99.90
2019-05-03T05:17:06.176Z,99.90
2019-05-03T05:19:55.427Z,99.90
2019-05-03T05:22:26.007Z,99.90
2019-05-03T05:24:55.226Z,99.90
2019-05-03T05:27:51.709Z,99.90
2019-05-03T05:30:14.913Z,99.90
2019-05-03T05:32:42.760Z,99.90
2019-05-03T05:35:10.519Z,99.90
2019-05-03T05:37:38.170Z,99.90
2019-05-03T05:40:06.429Z,99.90
2019-05-03T05:42:35.034Z,99.90
2019-05-03T05:45:04.939Z,99.90
2019-05-03T05:47:50.489Z,99.90
2019-05-03T05:50:27.891Z,99.90
2019-05-03T05:52:55.527Z,99.90
2019-05-03T05:55:34.341Z,99.90
2019-05-03T05:58:12.439Z,99.90
2019-05-03T06:00:59.602Z,99.90
2019-05-03T06:03:27.218Z,99.90
2019-05-03T06:05:56.773Z,99.90
2019-05-03T06:09:02.070Z,99.90
2019-05-03T06:11:38.673Z,99.90
2019-05-03T06:14:15.184Z,99.90
2019-05-03T06:16:56.902Z,99.90
2019-05-03T06:19:44.923Z,99.90
2019-05-03T06:22:35.347Z,99.90
2019-05-03T06:25:10.360Z,99.90
2019-05-03T06:27:38.645Z,99.90
2019-05-03T06:30:35.105Z,99.90
2019-05-03T06:33:02.883Z,99.90
2019-05-03T06:35:30.555Z,99.90
2019-05-03T06:37:58.242Z,99.90
2019-05-03T06:40:26.179Z,99.90
2019-05-03T06:42:57.260Z,99.90
2019-05-03T06:45:26.751Z,99.90
2019-05-03T06:47:55.098Z,99.90
2019-05-03T06:50:25.190Z,99.90
2019-05-03T06:52:52.308Z,99.90
2019-05-03T06:55:19.961Z,99.90
2019-05-03T06:57:49.733Z,99.90
2019-05-03T07:00:35.595Z,99.90
2019-05-03T07:03:25.677Z,99.90
2019-05-03T07:06:11.328Z,99.90
2019-05-03T07:08:57.368Z,99.90
2019-05-03T07:11:25.170Z,99.90
2019-05-03T07:13:54.881Z,99.90
2019-05-03T07:16:22.379Z,99.90
2019-05-03T07:18:50.051Z,99.90
2019-05-03T07:21:17.689Z,99.90
2019-05-03T07:23:45.381Z,99.90
2019-05-03T07:26:14.922Z,99.90
2019-05-03T07:28:46.980Z,99.90
2019-05-03T07:31:11.984Z,99.90
2019-05-03T07:33:39.650Z,99.90
2019-05-03T07:36:07.279Z,99.90
2019-05-03T07:38:35.125Z,99.90
2019-05-03T07:41:05.097Z,99.90
2019-05-03T07:43:32.302Z,99.90
2019-05-03T07:45:59.963Z,99.90
2019-05-03T07:48:27.652Z,99.90
2019-05-03T07:50:55.313Z,99.90
2019-05-03T07:53:25.029Z,99.90
2019-05-03T07:56:12.280Z,99.90
2019-05-03T07:58:42.256Z,99.90
2019-05-03T08:01:15.514Z,99.90
2019-05-03T08:03:44.982Z,99.90
2019-05-03T08:06:14.762Z,99.90
2019-05-03T08:08:42.156Z,99.90
2019-05-03T08:11:09.776Z,99.90
2019-05-03T08:13:37.422Z,99.90
2019-05-03T08:16:05.851Z,99.90
2019-05-03T08:18:35.460Z,99.90
2019-05-03T08:21:05.161Z,99.90
2019-05-03T08:23:35.089Z,99.90
2019-05-03T08:26:02.228Z,99.90
2019-05-03T08:28:29.891Z,99.90
2019-05-03T08:31:19.655Z,99.90
2019-05-03T08:34:15.678Z,99.90
2019-05-03T08:37:15.381Z,99.90
2019-05-03T08:39:44.731Z,99.90
2019-05-03T08:42:25.369Z,99.90
2019-05-03T08:44:55.277Z,99.90
2019-05-03T08:47:24.755Z,99.90
2019-05-03T08:49:52.505Z,99.90
2019-05-03T08:52:20.240Z,99.90
2019-05-03T08:54:47.899Z,99.90
2019-05-03T08:57:15.613Z,99.90
2019-05-03T08:59:44.625Z,99.90
2019-05-03T09:02:16.668Z,99.90
2019-05-03T09:04:43.243Z,99.90
2019-05-03T09:07:11.627Z,99.90
2019-05-03T09:09:56.894Z,99.90
2019-05-03T09:12:25.201Z,99.90
2019-05-03T09:14:54.608Z,99.90
2019-05-03T09:17:24.527Z,99.90
2019-05-03T09:19:52.025Z,99.90
2019-05-03T09:22:19.743Z,99.90
2019-05-03T09:24:47.374Z,99.90
2019-05-03T09:27:15.566Z,99.90
2019-05-03T09:29:45.941Z,99.90
2019-05-03T09:32:14.723Z,99.90
2019-05-03T09:34:43.979Z,99.90
2019-05-03T09:37:11.868Z,99.90
2019-05-03T09:39:39.505Z,99.90
2019-05-03T09:42:07.176Z,99.90
2019-05-03T09:44:35.128Z,99.90
2019-05-03T09:47:02.972Z,99.90
2019-05-03T09:49:30.622Z,99.90
2019-05-03T09:51:58.459Z,99.90
2019-05-03T09:54:39.283Z,99.90
2019-05-03T09:57:07.035Z,99.90
2019-05-03T09:59:35.119Z,99.90
2019-05-03T10:02:04.742Z,99.90
2019-05-03T10:04:32.420Z,99.90
2019-05-03T10:07:00.101Z,99.90
2019-05-03T10:09:27.763Z,99.90
2019-05-03T10:11:55.970Z,99.90
2019-05-03T10:14:23.721Z,99.90
2019-05-03T10:16:58.925Z,99.90
2019-05-03T10:19:36.656Z,99.90
2019-05-03T10:21:56.054Z,99.90
2019-05-03T10:24:23.711Z,99.90
2019-05-03T10:26:51.385Z,99.90
2019-05-03T10:29:19.034Z,99.90
2019-05-03T10:31:54.710Z,99.90
2019-05-03T10:34:22.362Z,99.90
2019-05-03T10:36:50.027Z,99.90
2019-05-03T10:39:17.689Z,99.90
2019-05-03T10:41:45.463Z,99.90
2019-05-03T10:44:15.104Z,99.90
2019-05-03T10:46:42.593Z,99.90
2019-05-03T10:49:10.262Z,99.90
2019-05-03T10:51:44.842Z,99.90
2019-05-03T10:54:12.270Z,99.90
2019-05-03T10:56:46.260Z,99.90
2019-05-03T10:59:14.182Z,99.90
2019-05-03T11:01:57.339Z,99.90
2019-05-03T11:04:25.608Z,99.90
2019-05-03T11:06:55.138Z,99.90
2019-05-03T11:09:22.792Z,99.90
2019-05-03T11:11:50.472Z,99.90
2019-05-03T11:14:18.135Z,99.90
2019-05-03T11:16:46.199Z,99.90
2019-05-03T11:19:14.575Z,99.90
2019-05-03T11:21:45.666Z,99.90
2019-05-03T11:24:14.726Z,99.90
2019-05-03T11:26:45.418Z,99.90
2019-05-03T11:29:15.263Z,99.90
2019-05-03T11:32:09.334Z,99.90
2019-05-03T11:34:41.052Z,99.90
2019-05-03T11:37:34.636Z,99.90
2019-05-03T11:40:04.979Z,99.90
2019-05-03T11:42:32.153Z,99.90
2019-05-03T11:44:59.823Z,99.90
2019-05-03T11:47:27.781Z,99.90
2019-05-03T11:49:55.638Z,99.90
2019-05-03T11:52:25.689Z,99.90
2019-05-03T11:54:55.115Z,99.90
2019-05-03T11:57:26.303Z,99.90
2019-05-03T11:59:54.775Z,99.90
2019-05-03T12:02:46.213Z,99.90
2019-05-03T12:05:32.031Z,99.90
2019-05-03T12:07:59.838Z,99.90
2019-05-03T12:10:46.352Z,99.90
2019-05-03T12:13:05.275Z,99.90
2019-05-03T12:15:35.083Z,99.90
2019-05-03T12:18:06.155Z,99.90
2019-05-03T12:20:37.219Z,99.90
2019-05-03T12:23:05.993Z,99.20
2019-05-03T12:25:35.707Z,99.90
2019-05-03T12:28:05.656Z,99.90
2019-05-03T12:30:32.441Z,99.90
2019-05-03T12:33:00.143Z,99.90
2019-05-03T12:35:27.776Z,99.90
2019-05-03T12:37:55.687Z,99.90
2019-05-03T12:40:25.339Z,99.90
2019-05-03T12:42:54.946Z,99.90
2019-05-03T12:45:24.583Z,99.90
2019-05-03T12:47:51.890Z,99.90
2019-05-03T12:50:19.548Z,99.90
2019-05-03T12:52:50.506Z,99.90
2019-05-03T12:55:16.751Z,99.90
2019-05-03T12:57:45.751Z,99.90
2019-05-03T13:00:33.543Z,99.90
2019-05-03T13:03:04.674Z,99.90
2019-05-03T13:05:32.349Z,99.90
2019-05-03T13:08:25.055Z,99.90
2019-05-03T13:10:52.736Z,99.90
2019-05-03T13:13:20.356Z,99.90
2019-05-03T13:15:48.024Z,99.90
2019-05-03T13:18:15.762Z,99.90
2019-05-03T13:20:45.356Z,99.90
2019-05-03T13:23:13.165Z,99.90
2019-05-03T13:25:40.861Z,99.90
2019-05-03T13:28:08.514Z,99.90
2019-05-03T13:30:36.173Z,99.90
2019-05-03T13:33:05.858Z,99.90
2019-05-03T13:35:35.109Z,99.90
2019-05-03T13:38:02.776Z,99.90
2019-05-03T13:40:30.474Z,99.80
2019-05-03T13:43:03.598Z,99.10
2019-05-03T13:45:27.580Z,98.80
2019-05-03T13:47:55.427Z,98.50
2019-05-03T13:50:24.579Z,97.80
2019-05-03T13:52:52.507Z,98.20
2019-05-03T13:55:20.154Z,98.40
2019-05-03T13:57:47.836Z,98.50
2019-05-03T14:00:15.449Z,98.70
2019-05-03T14:02:44.980Z,99.20
2019-05-03T14:05:12.681Z,99.90
2019-05-03T14:07:40.376Z,99.20
2019-05-03T14:10:08.726Z,98.90
2019-05-03T14:12:36.415Z,99.10
2019-05-03T14:15:05.654Z,98.80
2019-05-03T14:17:33.544Z,98.90
2019-05-03T14:20:15.814Z,98.90
2019-05-03T14:22:44.675Z,98.80
2019-05-03T14:25:12.447Z,99.20
2019-05-03T14:27:40.089Z,99.00
2019-05-03T14:30:08.083Z,98.90
2019-05-03T14:32:35.959Z,99.40
2019-05-03T14:35:04.059Z,99.80
2019-05-03T14:37:31.702Z,99.90
2019-05-03T14:39:59.376Z,99.90
2019-05-03T14:42:27.039Z,99.90
2019-05-03T14:44:55.230Z,99.80
2019-05-03T14:47:22.942Z,99.80
2019-05-03T14:49:50.677Z,99.70
2019-05-03T14:52:18.296Z,99.80
2019-05-03T14:54:47.751Z,99.50
2019-05-03T14:57:20.384Z,99.70
2019-05-03T15:00:16.875Z,99.50
2019-05-03T15:02:51.115Z,99.50
2019-05-03T15:05:18.993Z,99.90
2019-05-03T15:07:46.676Z,99.90
2019-05-03T15:10:15.049Z,99.90
2019-05-03T15:12:45.000Z,99.90
2019-05-03T15:15:14.508Z,99.90
2019-05-03T15:17:42.087Z,99.90
2019-05-03T15:20:09.924Z,99.90
2019-05-03T15:22:37.595Z,99.90
2019-05-03T15:25:06.263Z,99.90
2019-05-03T15:27:55.264Z,99.90
2019-05-03T15:30:22.991Z,99.90
2019-05-03T15:32:57.762Z,99.90
2019-05-03T15:35:20.128Z,99.90
2019-05-03T15:37:47.783Z,99.90
2019-05-03T15:40:15.706Z,99.90
2019-05-03T15:42:48.434Z,99.90
2019-05-03T15:45:46.757Z,99.90
2019-05-03T15:48:20.127Z,99.90
2019-05-03T15:50:47.842Z,99.90
2019-05-03T15:53:15.558Z,99.90
2019-05-03T15:55:43.194Z,99.90
2019-05-03T15:58:10.826Z,99.90
2019-05-03T16:00:38.467Z,99.90
2019-05-03T16:03:10.497Z,99.90
2019-05-03T16:05:35.592Z,99.90
2019-05-03T16:08:04.598Z,99.90
2019-05-03T16:10:32.510Z,99.90
2019-05-03T16:13:00.162Z,99.90
2019-05-03T16:15:27.808Z,99.90
2019-05-03T16:17:55.522Z,99.90
2019-05-03T16:20:24.967Z,99.90
2019-05-03T16:22:54.251Z,99.90
2019-05-03T16:25:22.414Z,99.90
2019-05-03T16:28:24.955Z,99.90
2019-05-03T16:30:56.139Z,99.90
2019-05-03T16:33:27.645Z,99.90
2019-05-03T16:35:54.913Z,99.90
2019-05-03T16:38:24.660Z,99.90
2019-05-03T16:40:52.233Z,99.90
2019-05-03T16:43:19.959Z,99.90
2019-05-03T16:45:47.653Z,99.90
2019-05-03T16:48:18.143Z,99.90
2019-05-03T16:50:45.217Z,99.90
2019-05-03T16:53:14.664Z,99.90
2019-05-03T16:55:44.240Z,99.90
2019-05-03T16:58:11.903Z,99.90
2019-05-03T17:00:39.573Z,99.90
2019-05-03T17:03:07.202Z,99.90
2019-05-03T17:06:00.418Z,99.90
2019-05-03T17:08:49.057Z,99.90
2019-05-03T17:11:17.919Z,99.90
2019-05-03T17:13:47.612Z,99.90
2019-05-03T17:16:15.073Z,99.90
2019-05-03T17:18:44.533Z,99.90
2019-05-03T17:21:12.243Z,99.90
2019-05-03T17:23:39.930Z,99.90
2019-05-03T17:26:07.614Z,99.90
2019-05-03T17:28:35.443Z,99.90
2019-05-03T17:31:04.505Z,99.90
2019-05-03T17:33:32.399Z,99.90
2019-05-03T17:36:00.056Z,99.90
2019-05-03T17:38:27.731Z,99.90
2019-05-03T17:41:19.838Z,99.90
2019-05-03T17:43:51.231Z,99.90
2019-05-03T17:46:18.869Z,99.90
2019-05-03T17:48:46.519Z,99.90
2019-05-03T17:51:32.499Z,99.90
2019-05-03T17:54:14.542Z,99.90
2019-05-03T17:56:57.818Z,99.90
2019-05-03T17:59:34.935Z,99.90
2019-05-03T18:02:27.286Z,99.90
2019-05-03T18:05:17.251Z,99.90
2019-05-03T18:07:57.783Z,99.90
2019-05-03T18:10:26.547Z,99.90
2019-05-03T18:12:54.633Z,99.90
2019-05-03T18:15:22.398Z,99.90
2019-05-03T18:17:50.071Z,99.90
2019-05-03T18:20:17.743Z,99.90
2019-05-03T18:22:45.528Z,99.90
2019-05-03T18:25:14.264Z,99.90
2019-05-03T18:27:41.930Z,99.90
2019-05-03T18:30:09.915Z,99.90
2019-05-03T18:32:37.574Z,99.90
2019-05-03T18:35:05.949Z,99.90
2019-05-03T18:37:34.977Z,99.90
2019-05-03T18:40:04.894Z,99.90
2019-05-03T18:42:38.346Z,99.90
2019-05-03T18:45:23.538Z,99.90
2019-05-03T18:47:51.157Z,99.90
2019-05-03T18:50:18.811Z,99.90
2019-05-03T18:52:46.466Z,99.90
2019-05-03T18:55:14.144Z,99.90
2019-05-03T18:57:42.089Z,99.90
2019-05-03T19:00:10.374Z,99.90
2019-05-03T19:02:38.015Z,99.90
2019-05-03T19:05:06.523Z,99.90
2019-05-03T19:07:52.398Z,99.90
2019-05-03T19:10:27.955Z,99.90
2019-05-03T19:12:59.407Z,99.90
2019-05-03T19:15:29.148Z,99.90
2019-05-03T19:18:04.389Z,99.90
2019-05-03T19:20:32.149Z,99.90
2019-05-03T19:22:59.838Z,99.90
2019-05-03T19:25:27.567Z,99.90
2019-05-03T19:27:55.224Z,99.90
2019-05-03T19:30:24.495Z,99.90
2019-05-03T19:32:52.368Z,99.90
2019-05-03T19:35:19.999Z,99.90
2019-05-03T19:37:47.669Z,99.90
2019-05-03T19:40:15.353Z,99.90
2019-05-03T19:42:44.754Z,99.90
2019-05-03T19:45:15.069Z,99.90
2019-05-03T19:47:42.436Z,99.90
2019-05-03T19:50:11.893Z,99.90
2019-05-03T19:53:17.321Z,99.90
2019-05-03T19:55:50.133Z,99.90
2019-05-03T19:58:14.533Z,99.90
2019-05-03T20:01:05.612Z,99.90
2019-05-03T20:03:45.418Z,99.90
2019-05-03T20:06:29.094Z,99.90
2019-05-03T20:09:00.478Z,99.90
2019-05-03T20:11:28.143Z,99.90
2019-05-03T20:13:55.783Z,99.90
2019-05-03T20:16:23.435Z,99.90
2019-05-03T20:18:51.080Z,99.90
2019-05-03T20:21:18.754Z,99.90
2019-05-03T20:23:47.169Z,99.90
2019-05-03T20:26:34.826Z,99.90
2019-05-03T20:29:02.636Z,99.90
2019-05-03T20:31:30.286Z,99.90
2019-05-03T20:33:57.930Z,99.90
2019-05-03T20:36:25.736Z,99.90
2019-05-03T20:38:55.049Z,99.90
2019-05-03T20:41:24.930Z,99.90
2019-05-03T20:44:16.346Z,99.90
2019-05-03T20:46:48.670Z,99.90
2019-05-03T20:49:16.600Z,99.90
2019-05-03T20:51:49.688Z,99.90
2019-05-03T20:54:15.262Z,99.90
2019-05-03T20:56:43.068Z,99.90
2019-05-03T20:59:10.730Z,99.90
2019-05-03T21:01:38.406Z,99.90
2019-05-03T21:04:06.063Z,99.90
2019-05-03T21:06:35.790Z,99.90
2019-05-03T21:09:05.419Z,99.90
2019-05-03T21:11:33.129Z,99.90
2019-05-03T21:14:00.786Z,99.90
2019-05-03T21:16:45.082Z,99.90
2019-05-03T21:19:41.231Z,99.90
2019-05-03T21:22:17.964Z,99.90
2019-05-03T21:24:51.134Z,99.90
2019-05-03T21:27:18.765Z,99.90
2019-05-03T21:29:55.038Z,99.90
2019-05-03T21:32:22.506Z,99.90
2019-05-03T21:34:50.196Z,99.90
2019-05-03T21:37:17.926Z,99.90
2019-05-03T21:39:45.654Z,99.90
2019-05-03T21:42:15.111Z,99.90
2019-05-03T21:44:44.514Z,99.90
2019-05-03T21:47:31.725Z,99.90
2019-05-03T21:50:00.136Z,99.90
2019-05-03T21:52:27.812Z,99.90
2019-05-03T21:54:57.098Z,99.90
2019-05-03T21:57:25.277Z,99.90
2019-05-03T21:59:54.894Z,99.90
2019-05-03T22:02:24.554Z,99.90
2019-05-03T22:04:52.086Z,99.90
2019-05-03T22:07:19.759Z,99.90
2019-05-03T22:09:47.436Z,99.90
2019-05-03T22:12:15.090Z,99.90
2019-05-03T22:14:47.887Z,99.90
2019-05-03T22:17:34.563Z,99.90
2019-05-03T22:20:11.050Z,99.90
2019-05-03T22:22:58.225Z,99.90
2019-05-03T22:25:28.411Z,99.90
2019-05-03T22:27:56.081Z,99.90
2019-05-03T22:30:24.351Z,99.90
2019-05-03T22:32:54.775Z,99.90
2019-05-03T22:35:24.968Z,99.90
2019-05-03T22:37:52.055Z,99.90
2019-05-03T22:40:19.706Z,99.90
2019-05-03T22:42:47.380Z,99.90
2019-05-03T22:45:15.462Z,99.90
2019-05-03T22:47:44.605Z,99.90
2019-05-03T22:50:14.741Z,99.90
2019-05-03T22:52:42.094Z,99.90
2019-05-03T22:55:09.973Z,99.90
2019-05-03T22:57:37.675Z,99.90
2019-05-03T23:00:06.316Z,99.90
2019-05-03T23:02:35.182Z,99.90
2019-05-03T23:05:04.674Z,99.90
2019-05-03T23:07:34.992Z,99.90
2019-05-03T23:10:02.464Z,99.90
2019-05-03T23:12:30.150Z,99.90
2019-05-03T23:14:57.841Z,99.90
2019-05-03T23:17:25.554Z,99.90
2019-05-03T23:19:57.920Z,99.90
2019-05-03T23:22:28.882Z,99.90
2019-05-03T23:24:56.559Z,99.90
2019-05-03T23:27:24.990Z,99.90
2019-05-03T23:29:54.522Z,99.90
2019-05-03T23:32:24.318Z,99.90
2019-05-03T23:34:51.802Z,99.90
2019-05-03T23:37:19.443Z,99.90
2019-05-03T23:39:47.090Z,99.90
2019-05-03T23:42:15.513Z,99.90
2019-05-03T23:44:45.461Z,99.90
2019-05-03T23:47:34.362Z,99.90
2019-05-03T23:50:01.779Z,99.90
2019-05-03T23:52:35.039Z,99.90
2019-05-03T23:55:05.777Z,99.90
2019-05-03T23:57:35.546Z,99.90
